createdAt,value
2017-12-17T00:00:28.609Z,3.20
2017-12-17T00:02:55.336Z,3.10
2017-12-17T00:05:22.316Z,3.20
2017-12-17T00:07:49.824Z,3.20
2017-12-17T00:10:16.632Z,3.10
2017-12-17T00:12:43.353Z,3.30
2017-12-17T00:15:10.864Z,3.40
2017-12-17T00:17:37.604Z,3.30
2017-12-17T00:20:04.377Z,3.40
2017-12-17T00:22:31.140Z,3.40
2017-12-17T00:24:58.643Z,3.40
2017-12-17T00:27:25.471Z,3.30
2017-12-17T00:29:52.940Z,3.40
2017-12-17T00:32:19.718Z,3.30
2017-12-17T00:34:47.274Z,3.40
2017-12-17T00:37:14.866Z,3.30
2017-12-17T00:39:41.595Z,3.30
2017-12-17T00:42:08.329Z,3.30
2017-12-17T00:44:35.092Z,3.40
2017-12-17T00:47:01.838Z,3.40
2017-12-17T00:49:28.572Z,3.40
2017-12-17T00:51:55.312Z,3.40
2017-12-17T00:54:22.073Z,3.40
2017-12-17T00:56:48.858Z,3.40
2017-12-17T00:59:16.450Z,3.40
2017-12-17T01:01:43.215Z,3.30
2017-12-17T01:04:09.963Z,3.40
2017-12-17T01:06:36.688Z,3.40
2017-12-17T01:09:03.541Z,3.40
2017-12-17T01:11:30.289Z,3.40
2017-12-17T01:13:57.072Z,3.40
2017-12-17T01:16:23.835Z,3.40
2017-12-17T01:18:50.610Z,3.40
2017-12-17T01:21:17.359Z,3.40
2017-12-17T01:23:44.852Z,3.40
2017-12-17T01:26:11.593Z,3.30
2017-12-17T01:28:38.336Z,3.40
2017-12-17T01:31:05.079Z,3.40
2017-12-17T01:33:31.823Z,3.40
2017-12-17T01:35:58.565Z,3.50
2017-12-17T01:38:25.300Z,3.50
2017-12-17T01:40:52.109Z,3.40
2017-12-17T01:43:19.721Z,3.40
2017-12-17T01:45:46.468Z,3.40
2017-12-17T01:48:13.207Z,3.40
2017-12-17T01:50:40.089Z,3.50
2017-12-17T01:53:07.583Z,3.50
2017-12-17T01:55:34.335Z,3.40
2017-12-17T01:58:01.079Z,3.40
2017-12-17T02:00:27.827Z,3.40
2017-12-17T02:02:56.211Z,3.40
2017-12-17T02:05:22.938Z,3.40
2017-12-17T02:07:50.454Z,3.30
2017-12-17T02:10:17.182Z,3.30
2017-12-17T02:12:43.937Z,3.30
2017-12-17T02:15:10.666Z,3.30
2017-12-17T02:17:37.401Z,3.30
2017-12-17T02:20:04.130Z,3.20
2017-12-17T02:22:30.864Z,3.20
2017-12-17T02:24:57.612Z,3.20
2017-12-17T02:27:24.350Z,3.20
2017-12-17T02:29:51.083Z,3.20
2017-12-17T02:32:18.587Z,3.20
2017-12-17T02:34:45.328Z,3.10
2017-12-17T02:37:12.075Z,3.20
2017-12-17T02:39:38.803Z,3.20
2017-12-17T02:42:05.552Z,3.10
2017-12-17T02:44:32.289Z,3.10
2017-12-17T02:46:59.034Z,3.10
2017-12-17T02:49:25.780Z,3.10
2017-12-17T02:51:52.863Z,3.10
2017-12-17T02:54:19.597Z,3.00
2017-12-17T02:56:47.079Z,2.90
2017-12-17T02:59:13.829Z,2.90
2017-12-17T03:01:40.600Z,2.90
2017-12-17T03:04:07.324Z,2.80
2017-12-17T03:06:34.059Z,2.90
2017-12-17T03:09:00.802Z,2.80
2017-12-17T03:11:27.579Z,2.80
2017-12-17T03:13:55.079Z,2.70
2017-12-17T03:16:21.818Z,2.60
2017-12-17T03:18:48.550Z,2.60
2017-12-17T03:21:15.290Z,2.50
2017-12-17T03:23:42.027Z,2.40
2017-12-17T03:26:08.757Z,2.40
2017-12-17T03:28:35.492Z,2.30
2017-12-17T03:31:02.230Z,2.30
2017-12-17T03:33:28.973Z,2.20
2017-12-17T03:35:55.700Z,2.20
2017-12-17T03:38:22.447Z,2.20
2017-12-17T03:40:49.171Z,2.20
2017-12-17T03:43:16.043Z,2.20
2017-12-17T03:45:42.780Z,2.20
2017-12-17T03:48:09.538Z,2.20
2017-12-17T03:50:36.271Z,2.30
2017-12-17T03:53:03.030Z,2.30
2017-12-17T03:55:29.761Z,2.40
2017-12-17T03:57:56.488Z,2.40
2017-12-17T04:00:23.283Z,2.40
2017-12-17T04:02:50.850Z,2.40
2017-12-17T04:05:17.590Z,2.40
2017-12-17T04:07:44.315Z,2.40
2017-12-17T04:10:11.836Z,2.50
2017-12-17T04:12:38.560Z,2.40
2017-12-17T04:15:05.331Z,2.50
2017-12-17T04:17:32.830Z,2.40
2017-12-17T04:19:59.612Z,2.40
2017-12-17T04:22:27.846Z,2.30
2017-12-17T04:24:54.609Z,2.30
2017-12-17T04:27:21.368Z,2.30
2017-12-17T04:29:48.117Z,2.20
2017-12-17T04:32:14.851Z,2.10
2017-12-17T04:34:41.710Z,2.10
2017-12-17T04:37:09.286Z,1.90
2017-12-17T04:39:36.019Z,1.90
2017-12-17T04:42:02.761Z,1.90
2017-12-17T04:44:29.496Z,1.80
2017-12-17T04:46:56.239Z,1.80
2017-12-17T04:49:22.961Z,1.70
2017-12-17T04:51:50.478Z,1.70
2017-12-17T04:54:17.211Z,1.70
2017-12-17T04:56:43.952Z,1.70
2017-12-17T04:59:10.856Z,1.60
2017-12-17T05:01:37.603Z,1.60
2017-12-17T05:04:04.329Z,1.60
2017-12-17T05:06:31.833Z,1.60
2017-12-17T05:08:58.584Z,1.50
2017-12-17T05:11:25.314Z,1.60
2017-12-17T05:13:52.059Z,1.50
2017-12-17T05:16:18.820Z,1.60
2017-12-17T05:18:45.572Z,1.50
2017-12-17T05:21:13.068Z,1.50
2017-12-17T05:23:39.808Z,1.50
2017-12-17T05:26:06.552Z,1.50
2017-12-17T05:28:33.286Z,1.60
2017-12-17T05:31:00.031Z,1.60
2017-12-17T05:33:26.775Z,1.60
2017-12-17T05:35:53.516Z,1.70
2017-12-17T05:38:20.263Z,1.70
2017-12-17T05:40:47.058Z,1.70
2017-12-17T05:45:43.490Z,1.80
2017-12-17T05:48:10.315Z,1.80
2017-12-17T05:50:38.552Z,1.80
2017-12-17T05:53:05.280Z,1.80
2017-12-17T05:55:32.027Z,1.90
2017-12-17T05:57:58.770Z,2.00
2017-12-17T06:00:25.512Z,2.10
2017-12-17T06:02:52.267Z,2.10
2017-12-17T06:05:18.993Z,2.10
2017-12-17T06:07:45.729Z,2.10
2017-12-17T06:10:12.458Z,2.20
2017-12-17T06:12:39.194Z,2.20
2017-12-17T06:15:05.937Z,2.20
2017-12-17T06:17:32.662Z,2.20
2017-12-17T06:19:59.408Z,2.30
2017-12-17T06:22:26.182Z,2.30
2017-12-17T06:24:52.894Z,2.30
2017-12-17T06:27:19.646Z,2.30
2017-12-17T06:29:46.393Z,2.30
2017-12-17T06:32:13.134Z,2.30
2017-12-17T06:34:39.866Z,2.40
2017-12-17T06:37:06.602Z,2.40
2017-12-17T06:39:33.331Z,2.40
2017-12-17T06:42:00.092Z,2.40
2017-12-17T06:44:26.860Z,2.30
2017-12-17T06:46:54.400Z,2.30
2017-12-17T06:49:21.923Z,2.30
2017-12-17T06:51:48.674Z,2.30
2017-12-17T06:54:15.416Z,2.40
2017-12-17T06:56:42.156Z,2.40
2017-12-17T06:59:08.895Z,2.40
2017-12-17T07:01:35.647Z,2.40
2017-12-17T07:04:02.375Z,2.30
2017-12-17T07:06:29.111Z,2.40
2017-12-17T07:08:55.948Z,2.40
2017-12-17T07:11:22.664Z,2.30
2017-12-17T07:13:49.409Z,2.40
2017-12-17T07:16:16.139Z,2.40
2017-12-17T07:18:42.877Z,2.40
2017-12-17T07:21:09.623Z,2.40
2017-12-17T07:23:36.387Z,2.40
2017-12-17T07:26:03.130Z,2.40
2017-12-17T07:28:29.883Z,2.40
2017-12-17T07:30:56.642Z,2.40
2017-12-17T07:33:24.136Z,2.40
2017-12-17T07:35:50.877Z,2.30
2017-12-17T07:38:17.619Z,2.40
2017-12-17T07:40:44.340Z,2.50
2017-12-17T07:43:11.095Z,2.50
2017-12-17T07:45:37.847Z,2.50
2017-12-17T07:48:04.727Z,2.50
2017-12-17T07:50:32.291Z,2.50
2017-12-17T07:52:59.951Z,2.50
2017-12-17T07:55:27.479Z,2.40
2017-12-17T07:57:54.199Z,2.40
2017-12-17T08:00:20.938Z,2.50
2017-12-17T08:02:47.676Z,2.50
2017-12-17T08:05:14.450Z,2.50
2017-12-17T08:07:41.950Z,2.50
2017-12-17T08:10:08.690Z,2.50
2017-12-17T08:12:35.417Z,2.50
2017-12-17T08:15:02.230Z,2.50
2017-12-17T08:17:29.727Z,2.50
2017-12-17T08:19:56.519Z,2.40
2017-12-17T08:22:23.257Z,2.50
2017-12-17T08:24:50.008Z,2.50
2017-12-17T08:27:17.586Z,2.50
2017-12-17T08:29:45.064Z,2.50
2017-12-17T08:32:11.829Z,2.50
2017-12-17T08:34:38.584Z,2.50
2017-12-17T08:37:05.312Z,2.50
2017-12-17T08:39:32.068Z,2.50
2017-12-17T08:41:58.813Z,2.50
2017-12-17T08:44:26.360Z,2.50
2017-12-17T08:46:53.130Z,2.50
2017-12-17T08:49:20.581Z,2.60
2017-12-17T08:51:47.351Z,2.60
2017-12-17T08:54:14.082Z,2.60
2017-12-17T08:56:40.821Z,2.60
2017-12-17T08:59:07.568Z,2.60
2017-12-17T09:01:34.304Z,2.60
2017-12-17T09:04:01.098Z,2.60
2017-12-17T09:06:27.817Z,2.70
2017-12-17T09:08:54.737Z,2.70
2017-12-17T09:11:21.463Z,2.80
2017-12-17T09:13:48.205Z,2.70
2017-12-17T09:16:14.935Z,2.80
2017-12-17T09:18:41.711Z,2.80
2017-12-17T09:21:08.449Z,2.80
2017-12-17T09:23:35.344Z,2.80
2017-12-17T09:26:02.145Z,2.80
2017-12-17T09:28:28.885Z,2.80
2017-12-17T09:30:57.139Z,2.80
2017-12-17T09:33:23.980Z,2.80
2017-12-17T09:35:50.733Z,2.90
2017-12-17T09:38:17.474Z,2.90
2017-12-17T09:40:44.218Z,2.90
2017-12-17T09:43:11.728Z,2.90
2017-12-17T09:45:38.473Z,2.90
2017-12-17T09:48:05.199Z,3.00
2017-12-17T09:50:32.027Z,3.00
2017-12-17T09:52:59.643Z,3.00
2017-12-17T09:55:26.363Z,3.00
2017-12-17T09:57:53.103Z,3.10
2017-12-17T10:00:19.858Z,3.20
2017-12-17T10:02:46.709Z,3.20
2017-12-17T10:05:13.425Z,3.20
2017-12-17T10:07:40.190Z,3.20
2017-12-17T10:10:06.932Z,3.20
2017-12-17T10:12:33.685Z,3.20
2017-12-17T10:15:01.207Z,3.20
2017-12-17T10:17:27.946Z,3.20
2017-12-17T10:19:54.752Z,3.20
2017-12-17T10:22:21.580Z,3.30
2017-12-17T10:24:48.344Z,3.30
2017-12-17T10:27:15.116Z,3.30
2017-12-17T10:29:41.852Z,3.30
2017-12-17T10:32:08.586Z,3.30
2017-12-17T10:34:35.331Z,3.30
2017-12-17T10:37:02.074Z,3.30
2017-12-17T10:39:28.804Z,3.30
2017-12-17T10:41:55.564Z,3.40
2017-12-17T10:44:22.292Z,3.30
2017-12-17T10:46:49.036Z,3.30
2017-12-17T10:49:15.771Z,3.40
2017-12-17T10:51:42.516Z,3.40
2017-12-17T10:54:09.238Z,3.40
2017-12-17T10:56:36.000Z,3.50
2017-12-17T10:59:03.584Z,3.50
2017-12-17T11:01:30.355Z,3.40
2017-12-17T11:03:57.090Z,3.50
2017-12-17T11:06:23.820Z,3.40
2017-12-17T11:08:50.569Z,3.40
2017-12-17T11:11:17.308Z,3.50
2017-12-17T11:13:44.060Z,3.50
2017-12-17T11:16:10.791Z,3.50
2017-12-17T11:18:37.593Z,3.60
2017-12-17T11:21:05.078Z,3.60
2017-12-17T11:23:31.819Z,3.60
2017-12-17T11:25:58.693Z,3.60
2017-12-17T11:28:25.455Z,3.70
2017-12-17T11:30:52.991Z,3.60
2017-12-17T11:33:19.750Z,3.60
2017-12-17T11:35:46.497Z,3.60
2017-12-17T11:38:13.983Z,3.60
2017-12-17T11:40:40.735Z,3.50
2017-12-17T11:43:07.592Z,3.50
2017-12-17T11:45:34.346Z,3.50
2017-12-17T11:48:01.075Z,3.50
2017-12-17T11:50:27.825Z,3.50
2017-12-17T11:52:54.583Z,3.50
2017-12-17T11:55:22.129Z,3.40
2017-12-17T11:57:48.837Z,3.40
2017-12-17T12:00:15.563Z,3.40
2017-12-17T12:02:42.328Z,3.40
2017-12-17T12:05:09.126Z,3.30
2017-12-17T12:07:36.063Z,3.30
2017-12-17T12:10:02.871Z,3.40
2017-12-17T12:12:29.608Z,3.40
2017-12-17T12:14:56.340Z,3.40
2017-12-17T12:17:23.089Z,3.40
2017-12-17T12:19:50.627Z,3.50
2017-12-17T12:22:17.378Z,3.50
2017-12-17T12:24:44.113Z,3.60
2017-12-17T12:27:10.853Z,3.60
2017-12-17T12:29:37.620Z,3.50
2017-12-17T12:32:05.132Z,3.60
2017-12-17T12:34:31.884Z,3.60
2017-12-17T12:36:58.627Z,3.60
2017-12-17T12:39:25.432Z,3.70
2017-12-17T12:41:52.150Z,3.70
2017-12-17T12:44:18.934Z,3.70
2017-12-17T12:46:45.664Z,3.70
2017-12-17T12:49:12.413Z,3.70
2017-12-17T12:51:39.203Z,3.70
2017-12-17T12:54:05.958Z,3.70
2017-12-17T12:56:32.779Z,3.70
2017-12-17T12:58:59.494Z,3.70
2017-12-17T13:01:26.255Z,3.70
2017-12-17T13:03:53.016Z,3.80
2017-12-17T13:06:19.761Z,3.70
2017-12-17T13:08:46.489Z,3.80
2017-12-17T13:11:13.245Z,3.80
2017-12-17T13:13:39.988Z,3.70
2017-12-17T13:16:06.730Z,3.70
2017-12-17T13:18:33.485Z,3.80
2017-12-17T13:21:00.249Z,3.80
2017-12-17T13:23:26.968Z,3.80
2017-12-17T13:25:53.723Z,3.80
2017-12-17T13:28:20.465Z,3.80
2017-12-17T13:30:47.981Z,3.80
2017-12-17T13:33:14.709Z,3.80
2017-12-17T13:35:41.571Z,3.90
2017-12-17T13:38:08.731Z,3.80
2017-12-17T13:40:36.288Z,3.90
2017-12-17T13:43:03.034Z,3.90
2017-12-17T13:45:30.548Z,3.90
2017-12-17T13:47:57.312Z,3.90
2017-12-17T13:50:24.044Z,4.00
2017-12-17T13:52:50.811Z,4.00
2017-12-17T13:55:18.315Z,4.00
2017-12-17T13:57:45.112Z,3.90
2017-12-17T14:00:11.848Z,3.90
2017-12-17T14:02:38.673Z,3.90
2017-12-17T14:05:05.407Z,3.90
2017-12-17T14:07:32.147Z,3.90
2017-12-17T14:09:58.905Z,3.80
2017-12-17T14:12:25.644Z,3.80
2017-12-17T14:14:52.382Z,3.80
2017-12-17T14:17:19.909Z,3.80
2017-12-17T14:19:46.668Z,3.80
2017-12-17T14:22:13.491Z,3.80
2017-12-17T14:24:40.247Z,3.90
2017-12-17T14:27:07.016Z,3.90
2017-12-17T14:29:34.511Z,3.90
2017-12-17T14:32:02.406Z,3.80
2017-12-17T14:34:29.156Z,3.80
2017-12-17T14:36:55.989Z,3.80
2017-12-17T14:39:22.718Z,3.80
2017-12-17T14:41:49.466Z,3.80
2017-12-17T14:44:16.211Z,3.80
2017-12-17T14:46:42.947Z,3.80
2017-12-17T14:49:09.752Z,3.80
2017-12-17T14:51:36.458Z,3.80
2017-12-17T14:54:03.196Z,3.80
2017-12-17T14:56:30.707Z,3.80
2017-12-17T14:58:57.509Z,3.80
2017-12-17T15:01:24.260Z,3.80
2017-12-17T15:03:51.043Z,3.90
2017-12-17T15:06:17.800Z,3.80
2017-12-17T15:08:44.564Z,3.80
2017-12-17T15:11:12.175Z,3.80
2017-12-17T15:13:38.929Z,3.80
2017-12-17T15:16:05.692Z,3.90
2017-12-17T15:18:33.209Z,3.80
2017-12-17T15:20:59.997Z,3.80
2017-12-17T15:23:26.728Z,3.80
2017-12-17T15:25:53.512Z,3.90
2017-12-17T15:28:20.257Z,3.90
2017-12-17T15:30:47.007Z,3.90
2017-12-17T15:33:13.746Z,3.90
2017-12-17T15:35:40.558Z,3.90
2017-12-17T15:38:07.306Z,3.90
2017-12-17T15:40:34.037Z,3.90
2017-12-17T15:43:00.780Z,3.80
2017-12-17T15:45:27.504Z,3.90
2017-12-17T15:47:54.256Z,3.90
2017-12-17T15:50:20.996Z,3.90
2017-12-17T15:52:47.690Z,3.90
2017-12-17T15:55:15.231Z,3.90
2017-12-17T15:57:42.208Z,3.80
2017-12-17T16:00:08.947Z,3.90
2017-12-17T16:02:35.684Z,3.90
2017-12-17T16:05:02.451Z,3.90
2017-12-17T16:07:29.200Z,3.90
2017-12-17T16:09:55.955Z,3.90
2017-12-17T16:12:22.703Z,3.90
2017-12-17T16:14:50.255Z,4.00
2017-12-17T16:17:16.997Z,4.00
2017-12-17T16:19:43.747Z,4.00
2017-12-17T16:22:10.481Z,4.00
2017-12-17T16:24:37.426Z,4.00
2017-12-17T16:27:04.160Z,4.10
2017-12-17T16:29:30.909Z,4.10
2017-12-17T16:31:57.656Z,4.10
2017-12-17T16:34:25.174Z,4.00
2017-12-17T16:36:51.919Z,4.00
2017-12-17T16:39:18.677Z,4.00
2017-12-17T16:41:45.414Z,4.00
2017-12-17T16:44:12.154Z,4.00
2017-12-17T16:46:38.891Z,4.00
2017-12-17T16:49:06.412Z,3.90
2017-12-17T16:51:33.163Z,3.90
2017-12-17T16:53:59.916Z,3.90
2017-12-17T16:56:26.673Z,3.90
2017-12-17T16:58:53.398Z,3.90
2017-12-17T17:01:20.156Z,3.90
2017-12-17T17:03:46.906Z,3.90
2017-12-17T17:06:14.430Z,3.80
2017-12-17T17:08:41.190Z,3.80
2017-12-17T17:11:07.910Z,3.80
2017-12-17T17:13:34.800Z,3.80
2017-12-17T17:16:01.655Z,3.80
2017-12-17T17:18:28.413Z,3.80
2017-12-17T17:20:55.150Z,3.80
2017-12-17T17:23:21.922Z,3.80
2017-12-17T17:25:48.672Z,3.90
2017-12-17T17:28:16.186Z,3.80
2017-12-17T17:30:43.122Z,3.80
2017-12-17T17:33:09.879Z,3.90
2017-12-17T17:35:36.620Z,3.90
2017-12-17T17:38:03.357Z,3.90
2017-12-17T17:40:30.155Z,3.90
2017-12-17T17:42:56.932Z,3.90
2017-12-17T17:45:23.740Z,3.90
2017-12-17T17:47:50.487Z,3.90
2017-12-17T17:50:17.262Z,3.90
2017-12-17T17:52:44.232Z,3.90
2017-12-17T17:55:11.184Z,3.90
2017-12-17T17:57:38.742Z,4.00
2017-12-17T18:00:05.501Z,3.90
2017-12-17T18:02:32.273Z,4.00
2017-12-17T18:04:59.074Z,4.00
2017-12-17T18:07:26.587Z,4.00
2017-12-17T18:09:53.387Z,4.00
2017-12-17T18:12:20.241Z,4.00
2017-12-17T18:14:47.074Z,4.10
2017-12-17T18:17:13.887Z,4.10
2017-12-17T18:19:41.414Z,4.10
2017-12-17T18:22:08.279Z,4.10
2017-12-17T18:24:35.958Z,4.20
2017-12-17T18:27:02.751Z,4.20
2017-12-17T18:29:29.749Z,4.20
2017-12-17T18:31:56.632Z,4.20
2017-12-17T18:34:23.530Z,4.20
2017-12-17T18:36:50.368Z,4.20
2017-12-17T18:39:17.410Z,4.20
2017-12-17T18:41:45.180Z,4.20
2017-12-17T18:44:12.220Z,4.10
2017-12-17T18:46:39.206Z,4.10
2017-12-17T18:49:06.209Z,4.10
2017-12-17T18:51:33.263Z,4.10
2017-12-17T18:54:00.300Z,4.10
2017-12-17T18:56:27.344Z,4.00
2017-12-17T18:58:54.361Z,4.00
2017-12-17T19:01:22.163Z,4.00
2017-12-17T19:03:49.204Z,3.90
2017-12-17T19:06:16.350Z,3.90
2017-12-17T19:08:43.398Z,4.00
2017-12-17T19:11:10.505Z,4.00
2017-12-17T19:13:38.306Z,3.90
2017-12-17T19:16:05.457Z,3.90
2017-12-17T19:18:32.503Z,4.00
2017-12-17T19:20:59.549Z,3.90
2017-12-17T19:23:26.595Z,3.90
2017-12-17T19:25:53.637Z,3.90
2017-12-17T19:28:20.685Z,3.90
2017-12-17T19:30:47.731Z,4.00
2017-12-17T19:33:14.776Z,4.00
2017-12-17T19:35:41.823Z,4.00
2017-12-17T19:38:08.869Z,3.90
2017-12-17T19:40:35.810Z,3.90
2017-12-17T19:43:02.864Z,4.00
2017-12-17T19:45:29.932Z,3.90
2017-12-17T19:47:57.127Z,4.00
2017-12-17T19:50:24.925Z,4.00
2017-12-17T19:52:52.069Z,3.90
2017-12-17T19:55:19.113Z,4.00
2017-12-17T19:57:46.365Z,4.00
2017-12-17T20:00:13.410Z,3.90
2017-12-17T20:02:40.456Z,4.00
2017-12-17T20:05:07.467Z,4.00
2017-12-17T20:07:35.265Z,4.00
2017-12-17T20:10:02.381Z,3.90
2017-12-17T20:12:30.175Z,4.00
2017-12-17T20:14:57.222Z,3.90
2017-12-17T20:17:24.270Z,4.00
2017-12-17T20:19:51.314Z,4.00
2017-12-17T20:22:18.360Z,3.90
2017-12-17T20:24:45.407Z,3.90
2017-12-17T20:27:12.524Z,4.00
2017-12-17T20:29:40.316Z,4.00
2017-12-17T20:32:07.372Z,3.90
2017-12-17T20:34:34.411Z,3.90
2017-12-17T20:37:01.427Z,4.00
2017-12-17T20:39:29.217Z,4.00
2017-12-17T20:41:56.266Z,3.90
2017-12-17T20:44:23.309Z,4.00
2017-12-17T20:46:50.467Z,3.90
2017-12-17T20:49:17.508Z,3.90
2017-12-17T20:51:44.524Z,3.90
2017-12-17T20:54:12.314Z,4.00
2017-12-17T20:56:39.332Z,3.90
2017-12-17T20:59:07.123Z,3.90
2017-12-17T21:01:34.173Z,3.90
2017-12-17T21:04:01.218Z,3.90
2017-12-17T21:06:28.259Z,3.90
2017-12-17T21:08:55.305Z,3.90
2017-12-17T21:11:22.352Z,3.90
2017-12-17T21:13:49.400Z,3.90
2017-12-17T21:16:16.355Z,3.90
2017-12-17T21:18:43.223Z,3.90
2017-12-17T21:21:10.033Z,3.90
2017-12-17T21:23:36.775Z,3.90
2017-12-17T21:26:03.559Z,3.90
2017-12-17T21:28:30.386Z,3.90
2017-12-17T21:30:57.145Z,3.80
2017-12-17T21:33:23.953Z,3.90
2017-12-17T21:35:50.687Z,3.80
2017-12-17T21:38:17.422Z,3.80
2017-12-17T21:40:44.178Z,3.80
2017-12-17T21:43:10.982Z,3.80
2017-12-17T21:45:38.495Z,3.80
2017-12-17T21:48:05.300Z,3.80
2017-12-17T21:50:32.020Z,3.80
2017-12-17T21:52:58.777Z,3.90
2017-12-17T21:55:25.538Z,3.80
2017-12-17T21:57:52.283Z,3.80
2017-12-17T22:00:19.216Z,3.90
2017-12-17T22:02:45.997Z,3.90
2017-12-17T22:05:13.774Z,3.80
2017-12-17T22:07:40.464Z,3.80
2017-12-17T22:10:07.232Z,3.80
2017-12-17T22:12:33.945Z,3.70
2017-12-17T22:15:00.693Z,3.60
2017-12-17T22:17:27.426Z,3.60
2017-12-17T22:19:54.228Z,3.50
2017-12-17T22:22:20.946Z,3.40
2017-12-17T22:24:48.452Z,3.30
2017-12-17T22:27:15.188Z,3.30
2017-12-17T22:29:41.938Z,3.20
2017-12-17T22:32:08.667Z,3.10
2017-12-17T22:34:35.420Z,3.00
2017-12-17T22:37:02.183Z,3.00
2017-12-17T22:39:29.679Z,2.90
2017-12-17T22:41:56.533Z,2.80
2017-12-17T22:44:23.275Z,2.80
2017-12-17T22:46:50.053Z,2.80
2017-12-17T22:49:16.783Z,2.70
2017-12-17T22:51:43.508Z,2.60
2017-12-17T22:54:10.248Z,2.60
2017-12-17T22:56:36.991Z,2.50
2017-12-17T22:59:03.779Z,2.50
2017-12-17T23:01:30.540Z,2.50
2017-12-17T23:03:57.284Z,2.50
2017-12-17T23:06:24.016Z,2.50
2017-12-17T23:08:50.740Z,2.40
2017-12-17T23:11:17.457Z,2.40
2017-12-17T23:13:44.966Z,2.30
2017-12-17T23:16:11.718Z,2.30
2017-12-17T23:18:38.471Z,2.30
2017-12-17T23:21:05.278Z,2.30
2017-12-17T23:23:31.990Z,2.30
2017-12-17T23:25:58.741Z,2.30
2017-12-17T23:28:25.468Z,2.30
2017-12-17T23:30:52.206Z,2.30
2017-12-17T23:33:19.062Z,2.30
2017-12-17T23:35:45.981Z,2.20
2017-12-17T23:38:12.721Z,2.10
2017-12-17T23:40:40.246Z,2.10
2017-12-17T23:43:06.981Z,2.00
2017-12-17T23:45:33.800Z,2.00
2017-12-17T23:48:00.520Z,1.90
2017-12-17T23:50:27.252Z,1.80
2017-12-17T23:52:54.208Z,1.70
2017-12-17T23:55:20.936Z,1.70
2017-12-17T23:57:47.678Z,1.60
